Time;durP1;ratioP1;P1;durP2;ratioP2;P2;SDS_P1;SDS_P2;PMS_P1;PMS_P2;Temp;Humidity;BMP_temperature;BMP_pressure;BME280_temperature;BME280_humidity;BME280_pressure;Samples;Min_cycle;Max_cycle;Signal;HPM_P1;HPM_P2
2022/04/07 00:01:00;;;;;;;10.60;2.47;;;;;;;7.80;68.43;96975.13;5023351;28;20111;-44
2022/04/07 00:03:27;;;;;;;7.30;2.17;;;;;;;7.80;69.13;96977.72;5027699;28;20056;-46
2022/04/07 00:05:54;;;;;;;8.55;2.25;;;;;;;7.83;68.71;96967.25;5025138;28;20048;-41
2022/04/07 00:08:20;;;;;;;9.55;2.25;;;;;;;7.82;67.97;96971.59;5021952;28;20065;-44
2022/04/07 00:10:48;;;;;;;6.00;2.13;;;;;;;7.82;68.21;96943.25;5026025;28;20083;-52
2022/04/07 00:13:14;;;;;;;5.38;2.08;;;;;;;7.84;66.47;96945.75;5026321;28;20049;-45
2022/04/07 00:15:41;;;;;;;6.88;2.60;;;;;;;7.84;66.75;96948.34;5025179;28;20133;-49
2022/04/07 00:18:08;;;;;;;9.82;2.97;;;;;;;7.82;66.65;96960.44;5035205;28;20060;-47
2022/04/07 00:20:35;;;;;;;8.98;2.15;;;;;;;7.85;66.43;96960.31;5027428;28;20057;-47
2022/04/07 00:23:03;;;;;;;5.93;1.98;;;;;;;7.88;67.63;96955.03;5025748;28;20057;-46
2022/04/07 00:25:31;;;;;;;5.07;1.92;;;;;;;7.86;67.22;96954.25;5026836;28;20049;-46
2022/04/07 00:27:57;;;;;;;6.13;2.00;;;;;;;7.85;67.00;96960.31;5024677;28;20888;-45
2022/04/07 00:30:24;;;;;;;11.73;2.60;;;;;;;7.85;66.25;96957.75;5025954;28;20081;-50
2022/04/07 00:32:51;;;;;;;5.15;2.03;;;;;;;7.84;65.72;96943.19;5022726;28;20854;-44
2022/04/07 00:35:17;;;;;;;5.18;1.92;;;;;;;7.81;66.34;96953.63;5027110;28;20045;-50
2022/04/07 00:37:44;;;;;;;8.07;2.35;;;;;;;7.80;66.45;96941.63;5027214;28;20099;-46
2022/04/07 00:40:12;;;;;;;10.38;2.20;;;;;;;7.78;66.14;96949.44;5026922;28;20100;-49
2022/04/07 00:42:48;;;;;;;10.35;2.42;;;;;;;7.79;65.56;96939.94;5026685;28;20045;-52
2022/04/07 00:45:16;;;;;;;8.02;2.92;;;;;;;7.80;65.72;96936.50;5021505;28;20095;-45
2022/04/07 00:47:44;;;;;;;5.07;2.15;;;;;;;7.81;66.87;96933.00;5012035;28;20049;-48
2022/04/07 00:50:13;;;;;;;5.32;2.15;;;;;;;7.81;65.97;96917.53;5020437;28;20058;-46
2022/04/07 00:52:41;;;;;;;8.10;2.08;;;;;;;7.80;66.35;96921.03;5024728;28;20129;-47
2022/04/07 00:55:10;;;;;;;10.07;2.70;;;;;;;7.79;66.15;96919.34;5023328;28;20119;-50
2022/04/07 00:57:39;;;;;;;8.88;2.88;;;;;;;7.80;65.54;96905.56;5023636;28;20100;-46
2022/04/07 01:00:08;;;;;;;6.32;2.25;;;;;;;7.78;65.13;96907.34;5023166;28;20405;-52
2022/04/07 01:02:36;;;;;;;6.15;1.98;;;;;;;7.80;65.36;96910.72;5024622;28;20053;-47
2022/04/07 01:05:04;;;;;;;7.25;2.28;;;;;;;7.81;65.35;96907.25;5020541;28;20083;-48
2022/04/07 01:07:36;;;;;;;4.57;2.22;;;;;;;7.82;65.25;96899.44;5025076;28;20049;-53
2022/04/07 01:10:05;;;;;;;6.07;2.65;;;;;;;7.79;65.70;96899.56;5026072;28;20049;-49
2022/04/07 01:12:31;;;;;;;6.40;2.03;;;;;;;7.79;63.72;96899.56;5024572;28;20553;-44
2022/04/07 01:15:00;;;;;;;4.45;1.92;;;;;;;7.80;63.00;96897.84;5023768;28;20065;-44
2022/04/07 01:17:27;;;;;;;8.75;2.58;;;;;;;7.78;63.65;96891.91;5025067;28;20050;-47
2022/04/07 01:19:55;;;;;;;5.40;2.25;;;;;;;7.82;62.10;96888.28;5007267;28;20127;-47
2022/04/07 01:22:22;;;;;;;5.07;1.77;;;;;;;7.83;61.81;96884.81;5023451;28;20535;-45
2022/04/07 01:24:49;;;;;;;6.57;2.40;;;;;;;7.79;63.16;96863.50;5023041;28;20046;-42
2022/04/07 01:27:18;;;;;;;5.72;2.03;;;;;;;7.80;61.79;96884.97;5023831;28;20582;-43
2022/04/07 01:29:45;;;;;;;8.73;2.92;;;;;;;7.79;61.39;96868.66;5025039;28;20053;-44
2022/04/07 01:32:18;;;;;;;5.20;3.17;;;;;;;7.76;63.10;96863.63;5026325;28;20393;-43
2022/04/07 01:34:45;;;;;;;4.10;2.20;;;;;;;7.75;62.80;96879.16;5022657;28;20062;-44
2022/04/07 01:37:13;;;;;;;7.68;2.58;;;;;;;7.75;61.80;96861.97;5023860;28;20041;-46
2022/04/07 01:39:41;;;;;;;6.05;1.77;;;;;;;7.76;61.95;96857.63;5025812;28;20100;-44
2022/04/07 01:42:09;;;;;;;5.20;1.70;;;;;;;7.76;62.64;96861.03;5022253;28;20174;-45
2022/04/07 01:44:40;;;;;;;8.70;2.20;;;;;;;7.76;62.49;96852.47;5019417;28;20099;-42
2022/04/07 01:47:08;;;;;;;8.07;2.17;;;;;;;7.75;62.70;96850.81;5019621;28;20053;-43
2022/04/07 01:49:36;;;;;;;5.82;2.15;;;;;;;7.74;61.76;96841.41;5023077;28;20053;-51
2022/04/07 01:52:05;;;;;;;3.72;1.50;;;;;;;7.70;60.73;96825.25;5023428;28;20057;-48
2022/04/07 01:54:34;;;;;;;3.90;2.25;;;;;;;7.65;60.91;96828.03;5021159;28;20504;-48
2022/04/07 01:57:01;;;;;;;5.60;2.00;;;;;;;7.61;62.05;96831.63;5025698;28;20597;-45
2022/04/07 01:59:28;;;;;;;9.55;2.00;;;;;;;7.55;60.51;96824.16;5021517;28;20045;-43
2022/04/07 02:01:55;;;;;;;3.28;1.20;;;;;;;7.54;61.45;96822.50;5023191;28;20099;-47
2022/04/07 02:04:23;;;;;;;5.43;2.13;;;;;;;7.45;60.42;96823.72;5022380;28;20508;-41
2022/04/07 02:06:49;;;;;;;6.63;2.13;;;;;;;7.43;61.64;96818.63;5020773;28;20046;-49
2022/04/07 02:09:16;;;;;;;6.78;1.70;;;;;;;7.38;61.25;96818.00;5023391;28;20061;-45
2022/04/07 02:11:44;;;;;;;4.00;2.42;;;;;;;7.34;59.26;96811.28;5025104;28;20053;-44
2022/04/07 02:14:12;;;;;;;2.65;1.75;;;;;;;7.30;60.28;96802.84;5026030;28;20362;-45
2022/04/07 02:16:38;;;;;;;4.07;2.08;;;;;;;7.26;59.76;96803.88;5018498;28;20053;-49
2022/04/07 02:19:05;;;;;;;4.72;1.90;;;;;;;7.25;60.99;96785.91;5025640;28;20696;-48
2022/04/07 02:21:32;;;;;;;3.83;1.52;;;;;;;7.17;59.34;96784.50;5024228;28;20045;-52
2022/04/07 02:23:59;;;;;;;5.20;1.67;;;;;;;7.14;59.48;96787.22;5026953;28;20045;-45
2022/04/07 02:26:25;;;;;;;1.65;1.40;;;;;;;7.12;58.92;96801.06;5027817;28;20049;-45
2022/04/07 02:28:52;;;;;;;3.58;1.55;;;;;;;7.10;59.19;96788.25;5029230;28;20107;-48
2022/04/07 02:31:18;;;;;;;3.00;1.80;;;;;;;7.05;59.23;96796.16;5029530;28;20184;-44
2022/04/07 02:33:46;;;;;;;5.80;1.98;;;;;;;7.04;60.25;96798.78;5027339;28;20123;-45
2022/04/07 02:36:14;;;;;;;6.85;1.58;;;;;;;7.03;60.76;96797.13;5026748;28;20049;-42
2022/04/07 02:38:40;;;;;;;9.90;1.63;;;;;;;7.02;60.00;96804.00;5021749;28;20107;-41
2022/04/07 02:41:07;;;;;;;2.58;1.48;;;;;;;6.99;60.27;96793.00;5026161;28;20489;-48
2022/04/07 02:43:33;;;;;;;5.70;1.67;;;;;;;6.98;60.10;96789.56;5027918;28;20045;-44
2022/04/07 02:46:00;;;;;;;7.78;0.85;;;;;;;6.98;60.16;96789.56;5028853;28;20709;-44
2022/04/07 02:48:27;;;;;;;1.63;0.20;;;;;;;6.96;60.35;96781.09;5028740;28;20459;-44
2022/04/07 02:50:53;;;;;;;5.28;2.05;;;;;;;6.98;60.60;96768.16;5024170;28;20058;-49
2022/04/07 02:53:20;;;;;;;5.32;1.88;;;;;;;6.96;59.86;96769.97;5025528;28;20046;-43
2022/04/07 02:55:46;;;;;;;3.25;1.58;;;;;;;6.96;60.80;96775.09;5028605;28;20124;-47
2022/04/07 02:58:13;;;;;;;2.75;1.90;;;;;;;6.93;60.85;96771.75;5025127;28;20053;-44
2022/04/07 03:00:40;;;;;;;5.47;1.95;;;;;;;6.94;60.90;96778.59;5027286;28;20108;-47
2022/04/07 03:03:06;;;;;;;5.10;2.55;;;;;;;6.97;61.11;96787.06;5028183;28;20041;-49
2022/04/07 03:05:33;;;;;;;3.33;1.80;;;;;;;6.98;60.25;96783.59;5023353;28;20060;-53
2022/04/07 03:08:00;;;;;;;5.82;3.30;;;;;;;6.98;60.19;96788.72;5023577;28;20711;-45
2022/04/07 03:10:26;;;;;;;3.78;1.67;;;;;;;6.98;60.00;96788.72;5020114;28;20041;-46
2022/04/07 03:12:53;;;;;;;2.85;1.45;;;;;;;6.99;60.71;96790.44;5027815;28;20548;-43
2022/04/07 03:15:20;;;;;;;4.03;1.52;;;;;;;6.98;61.13;96787.00;5026654;28;20045;-44
2022/04/07 03:17:46;;;;;;;3.72;1.45;;;;;;;6.97;59.93;96789.63;5028230;28;20053;-45
2022/04/07 03:20:13;;;;;;;7.95;2.30;;;;;;;6.98;60.72;96763.00;5027042;28;20570;-46
2022/04/07 03:22:40;;;;;;;3.42;2.13;;;;;;;6.98;60.64;96768.16;5025159;28;20058;-47
2022/04/07 03:25:07;;;;;;;6.55;2.05;;;;;;;6.96;59.36;96764.81;5028033;28;20041;-47
2022/04/07 03:27:34;;;;;;;1.83;1.63;;;;;;;6.94;59.78;96759.72;5026848;28;20057;-48
2022/04/07 03:30:01;;;;;;;6.82;2.42;;;;;;;6.93;60.64;96771.75;5026729;28;20057;-42
2022/04/07 03:32:27;;;;;;;5.82;1.70;;;;;;;6.97;60.38;96766.47;5025944;28;20394;-45
2022/04/07 03:34:54;;;;;;;3.22;1.88;;;;;;;6.95;59.26;96748.53;5025037;28;20053;-48
2022/04/07 03:37:21;;;;;;;5.00;1.92;;;;;;;6.99;59.39;96759.53;5023560;28;20100;-44
2022/04/07 03:39:49;;;;;;;4.43;1.75;;;;;;;6.99;60.16;96751.81;5027931;28;20084;-46
2022/04/07 03:42:17;;;;;;;3.63;1.83;;;;;;;6.99;59.02;96750.06;5020181;28;20053;-47
2022/04/07 03:44:43;;;;;;;3.30;1.67;;;;;;;7.01;58.54;96748.28;5020702;28;20096;-45
2022/04/07 03:47:10;;;;;;;4.40;1.80;;;;;;;7.01;58.42;96739.72;5026300;28;20100;-45
2022/04/07 03:49:36;;;;;;;3.75;2.00;;;;;;;6.99;59.63;96736.38;5022981;28;20397;-42
2022/04/07 03:52:04;;;;;;;5.05;1.83;;;;;;;6.98;58.50;96734.69;5020433;28;20050;-43
2022/04/07 03:54:31;;;;;;;4.00;1.42;;;;;;;6.93;58.84;96720.28;5021806;28;20524;-42
2022/04/07 03:56:58;;;;;;;3.85;2.15;;;;;;;6.90;59.93;96710.16;5022690;28;20049;-46
2022/04/07 03:59:25;;;;;;;1.70;1.38;;;;;;;6.80;57.73;96698.56;5026293;28;20062;-48
2022/04/07 04:01:51;;;;;;;6.65;1.85;;;;;;;6.77;58.18;96714.13;5027116;28;20778;-48
2022/04/07 04:04:20;;;;;;;1.40;1.17;;;;;;;6.68;58.46;96694.75;5023529;28;20156;-50
2022/04/07 04:06:47;;;;;;;4.00;2.20;;;;;;;6.65;59.55;96703.44;5023424;28;20057;-49
2022/04/07 04:09:13;;;;;;;2.10;1.50;;;;;;;6.63;58.75;96702.66;5025825;28;20084;-53
2022/04/07 04:11:40;;;;;;;3.05;1.52;;;;;;;6.59;58.68;96690.84;5025823;28;20141;-44
2022/04/07 04:14:07;;;;;;;3.50;1.77;;;;;;;6.52;59.47;96685.09;5027278;28;20477;-43
2022/04/07 04:16:34;;;;;;;3.28;1.27;;;;;;;6.49;60.69;96668.97;5026516;28;20487;-47
2022/04/07 04:19:01;;;;;;;4.38;2.08;;;;;;;6.46;59.16;96684.50;5024895;28;20041;-45
2022/04/07 04:21:27;;;;;;;3.78;1.98;;;;;;;6.42;58.99;96687.19;5026095;28;20574;-43
2022/04/07 04:23:54;;;;;;;4.03;2.03;;;;;;;6.39;60.10;96683.91;5022004;28;20053;-48
2022/04/07 04:26:21;;;;;;;7.05;1.58;;;;;;;6.36;60.78;96679.75;5026511;28;20073;-46
2022/04/07 04:28:47;;;;;;;4.68;1.42;;;;;;;6.36;59.60;96681.47;5025066;28;20053;-44
2022/04/07 04:31:14;;;;;;;3.88;1.80;;;;;;;6.27;59.90;96669.81;5025308;28;20049;-46
2022/04/07 04:33:41;;;;;;;6.40;1.85;;;;;;;6.26;60.01;96669.00;5026894;28;20092;-47
2022/04/07 04:36:08;;;;;;;9.25;1.73;;;;;;;6.25;61.18;96666.47;5025574;28;20099;-42
2022/04/07 04:38:35;;;;;;;3.72;1.73;;;;;;;6.22;59.77;96661.47;5023146;28;20050;-41
2022/04/07 04:41:02;;;;;;;5.40;1.95;;;;;;;6.17;59.75;96651.34;5021177;28;20501;-47
2022/04/07 04:43:28;;;;;;;3.22;1.38;;;;;;;6.14;60.65;96656.59;5017011;28;20104;-45
2022/04/07 04:45:55;;;;;;;3.53;1.80;;;;;;;6.11;59.93;96655.00;5026108;28;20571;-50
2022/04/07 04:48:22;;;;;;;4.35;2.03;;;;;;;6.12;60.28;96655.84;5023431;28;20073;-43
2022/04/07 04:50:48;;;;;;;3.00;2.20;;;;;;;6.11;60.60;96667.03;5027247;28;20382;-48
2022/04/07 04:53:15;;;;;;;5.80;1.60;;;;;;;6.07;60.60;96661.16;5020949;28;20049;-46
2022/04/07 04:55:42;;;;;;;5.70;2.05;;;;;;;6.10;60.29;96648.19;5025300;28;20072;-44
2022/04/07 04:58:09;;;;;;;4.20;1.75;;;;;;;6.07;60.90;96657.75;5025264;28;20119;-47
2022/04/07 05:00:36;;;;;;;2.75;1.48;;;;;;;6.05;60.83;96652.69;5022332;28;20049;-46
2022/04/07 05:03:02;;;;;;;2.05;1.58;;;;;;;6.04;60.51;96653.56;5025309;28;20635;-46
2022/04/07 05:05:29;;;;;;;5.78;1.60;;;;;;;6.07;61.16;96658.59;5023434;28;20495;-45
2022/04/07 05:07:55;;;;;;;6.00;1.65;;;;;;;6.08;61.39;96660.25;5022211;28;20049;-46
2022/04/07 05:10:22;;;;;;;7.80;1.95;;;;;;;6.11;61.27;96652.44;5025920;28;20099;-45
2022/04/07 05:12:49;;;;;;;6.53;2.17;;;;;;;6.14;61.91;96649.75;5024754;28;20052;-44
2022/04/07 05:15:15;;;;;;;2.83;2.22;;;;;;;6.12;61.32;96646.38;5024479;28;20072;-44
2022/04/07 05:17:47;;;;;;;3.88;1.80;;;;;;;6.10;61.20;96653.34;5019807;28;20049;-47
2022/04/07 05:20:14;;;;;;;5.07;1.65;;;;;;;6.07;61.63;96643.16;5023848;28;20054;-47
2022/04/07 05:22:41;;;;;;;5.15;2.08;;;;;;;6.06;61.91;96641.50;5001326;28;20077;-44
2022/04/07 05:25:08;;;;;;;3.63;1.60;;;;;;;6.10;61.59;96637.06;5019247;28;20465;-46
2022/04/07 05:27:36;;;;;;;7.20;2.42;;;;;;;6.10;61.82;96632.78;5020384;28;20041;-46
2022/04/07 05:30:05;;;;;;;2.63;1.85;;;;;;;6.09;60.85;96633.69;5025330;28;20049;-44
2022/04/07 05:32:32;;;;;;;4.90;2.15;;;;;;;6.09;62.22;96645.69;5024570;28;20049;-43
2022/04/07 05:34:59;;;;;;;4.07;1.90;;;;;;;6.08;61.63;96638.88;5021950;28;20057;-43
2022/04/07 05:37:26;;;;;;;4.03;2.67;;;;;;;6.08;61.52;96619.13;5021097;28;20069;-48
2022/04/07 05:39:52;;;;;;;3.67;1.50;;;;;;;6.05;61.15;96627.00;5025399;28;20049;-48
2022/04/07 05:42:19;;;;;;;4.63;1.73;;;;;;;6.04;61.35;96622.72;5024124;28;20053;-48
2022/04/07 05:44:45;;;;;;;5.40;1.58;;;;;;;6.03;62.67;96621.03;5018491;28;20053;-48
2022/04/07 05:47:12;;;;;;;5.93;2.28;;;;;;;6.04;62.22;96627.88;5023588;28;20049;-46
2022/04/07 05:49:39;;;;;;;8.90;3.90;;;;;;;6.05;61.68;96639.84;5024306;28;20042;-47
2022/04/07 05:52:06;;;;;;;5.68;2.55;;;;;;;6.07;61.23;96629.47;5024396;28;20057;-45
2022/04/07 05:54:35;;;;;;;6.90;3.45;;;;;;;6.10;61.98;96637.06;5026852;28;20047;-44
2022/04/07 05:57:02;;;;;;;3.63;1.23;;;;;;;6.10;62.46;96640.47;5025271;28;20623;-45
2022/04/07 05:59:29;;;;;;;4.38;1.67;;;;;;;6.12;63.13;96646.38;5028847;28;20389;-41
2022/04/07 06:01:56;;;;;;;6.20;1.95;;;;;;;6.19;62.08;96643.59;5025889;28;20119;-49
2022/04/07 06:04:22;;;;;;;8.55;3.40;;;;;;;6.23;62.40;96642.56;5025710;28;20072;-43
2022/04/07 06:06:49;;;;;;;8.65;3.47;;;;;;;6.23;61.75;96645.97;5021175;28;20065;-47
2022/04/07 06:09:16;;;;;;;3.10;2.25;;;;;;;6.29;61.51;96655.19;5016392;28;20065;-45
2022/04/07 06:11:42;;;;;;;5.32;3.33;;;;;;;6.26;61.91;96652.72;5016924;28;20097;-46
2022/04/07 06:14:26;;;;;;;4.72;2.72;;;;;;;6.30;62.99;96654.28;5020725;28;20047;-48
2022/04/07 06:16:53;;;;;;;3.13;1.75;;;;;;;6.30;62.86;96664.56;5018452;28;20049;-43
2022/04/07 06:19:20;;;;;;;3.53;1.65;;;;;;;6.32;61.78;96665.34;5014728;28;20050;-48
2022/04/07 06:21:46;;;;;;;5.72;1.90;;;;;;;6.40;61.51;96660.72;5024380;28;20481;-45
2022/04/07 06:24:14;;;;;;;5.03;1.83;;;;;;;6.44;61.68;96651.13;5017677;28;20100;-47
2022/04/07 06:26:40;;;;;;;7.13;2.20;;;;;;;6.51;61.88;96656.84;5019818;28;20045;-47
2022/04/07 06:29:07;;;;;;;2.42;1.55;;;;;;;6.55;62.84;96658.41;5014986;28;20058;-45
2022/04/07 06:31:33;;;;;;;2.72;1.50;;;;;;;6.63;61.53;96668.38;5020691;28;20038;-42
2022/04/07 06:34:04;;;;;;;4.53;1.70;;;;;;;6.67;61.09;96652.78;5017154;28;20053;-49
2022/04/07 06:36:34;;;;;;;6.25;2.08;;;;;;;6.71;62.02;96661.19;5017645;28;20049;-47
2022/04/07 06:39:01;;;;;;;7.03;1.80;;;;;;;6.73;61.54;96663.69;5020420;28;20045;-43
2022/04/07 06:41:27;;;;;;;7.93;1.85;;;;;;;6.76;61.00;96671.28;5022394;28;20045;-44
2022/04/07 06:43:54;;;;;;;3.58;2.13;;;;;;;6.76;62.28;96672.09;5022428;28;20053;-47
2022/04/07 06:46:20;;;;;;;5.10;1.88;;;;;;;6.77;62.29;96672.97;5018172;28;20041;-44
2022/04/07 06:48:47;;;;;;;7.63;2.70;;;;;;;6.77;61.24;96662.66;5015240;28;20046;-49
2022/04/07 06:51:14;;;;;;;7.43;2.60;;;;;;;6.80;62.07;96683.13;5017809;28;20075;-43
2022/04/07 06:53:41;;;;;;;5.97;3.00;;;;;;;6.80;62.97;96686.50;5017068;28;20064;-43
2022/04/07 06:56:08;;;;;;;5.38;2.60;;;;;;;6.83;62.58;96688.16;5023090;28;20044;-47
2022/04/07 06:58:36;;;;;;;3.92;1.85;;;;;;;6.81;62.96;96683.06;5019208;28;20125;-44
2022/04/07 07:01:02;;;;;;;7.10;3.03;;;;;;;6.84;63.02;96679.53;5020574;28;20539;-43
2022/04/07 07:03:29;;;;;;;7.47;2.53;;;;;;;6.86;63.06;96700.84;5016072;28;20073;-46
2022/04/07 07:05:58;;;;;;;6.95;3.13;;;;;;;6.83;63.47;96690.72;5022004;28;20061;-48
2022/04/07 07:08:25;;;;;;;7.97;2.85;;;;;;;6.89;63.00;96698.16;5023204;28;20469;-49
2022/04/07 07:10:52;;;;;;;10.30;2.97;;;;;;;6.88;61.90;96704.22;5014526;28;20386;-43
2022/04/07 07:13:21;;;;;;;5.63;2.42;;;;;;;6.92;62.73;96703.19;5019510;28;20049;-47
2022/04/07 07:15:53;;;;;;;8.15;2.45;;;;;;;6.93;63.19;96710.00;5017499;28;20124;-43
2022/04/07 07:18:20;;;;;;;10.02;3.70;;;;;;;7.00;62.32;96714.91;5012525;28;20041;-45
2022/04/07 07:20:47;;;;;;;8.30;2.83;;;;;;;7.01;63.51;96704.53;5014238;28;20045;-48
2022/04/07 07:23:15;;;;;;;9.43;3.50;;;;;;;7.04;61.86;96701.84;5016696;28;20357;-45
2022/04/07 07:25:42;;;;;;;5.15;2.38;;;;;;;7.06;61.68;96704.34;5021839;28;20485;-47
2022/04/07 07:28:09;;;;;;;11.13;3.33;;;;;;;7.15;63.18;96709.09;5016387;28;20791;-45
2022/04/07 07:30:36;;;;;;;5.82;2.92;;;;;;;7.42;61.37;96713.97;5020700;28;20045;-46
2022/04/07 07:33:03;;;;;;;4.82;2.28;;;;;;;7.58;61.13;96719.28;5025191;28;20049;-51
2022/04/07 07:35:29;;;;;;;7.43;3.08;;;;;;;7.95;61.63;96718.53;5019770;28;20058;-45
2022/04/07 07:37:58;;;;;;;8.70;3.20;;;;;;;8.30;59.50;96717.78;5018717;28;20045;-43
2022/04/07 07:40:31;;;;;;;7.00;1.80;;;;;;;8.51;59.50;96725.41;5020391;28;20061;-44
2022/04/07 07:43:00;;;;;;;7.05;3.83;;;;;;;8.51;58.30;96730.56;5026460;28;20072;-46
2022/04/07 07:45:30;;;;;;;2.28;1.65;;;;;;;8.45;58.70;96729.94;5028932;28;20091;-45
2022/04/07 07:48:18;;;;;;;4.20;1.77;;;;;;;8.45;59.07;96732.53;5027163;28;20573;-46
2022/04/07 07:50:45;;;;;;;4.50;2.10;;;;;;;8.29;58.05;96739.31;5025675;28;20053;-46
2022/04/07 07:53:17;;;;;;;8.40;2.35;;;;;;;8.22;59.16;96724.16;5020803;28;20050;-49
2022/04/07 07:55:44;;;;;;;7.38;3.45;;;;;;;8.18;58.60;96734.66;5025895;28;20055;-43
2022/04/07 07:58:11;;;;;;;7.47;2.92;;;;;;;8.39;58.50;96738.00;5023776;28;20115;-51
2022/04/07 08:00:38;;;;;;;3.55;1.45;;;;;;;8.41;57.75;96746.47;5022096;28;20566;-41
2022/04/07 08:03:05;;;;;;;4.60;1.67;;;;;;;8.43;58.32;96738.66;5016200;28;20132;-47
2022/04/07 08:05:32;;;;;;;3.45;2.25;;;;;;;8.39;57.74;96765.50;5027244;28;20432;-46
2022/04/07 08:07:58;;;;;;;2.88;0.65;;;;;;;8.37;57.66;96763.00;5023098;28;20516;-45
2022/04/07 08:10:25;;;;;;;3.28;2.13;;;;;;;8.39;58.35;96758.63;5024631;28;20068;-43
2022/04/07 08:12:52;;;;;;;4.05;1.70;;;;;;;8.48;58.65;96768.50;5019119;28;20045;-46
2022/04/07 08:15:19;;;;;;;4.75;1.40;;;;;;;8.45;57.87;96771.22;5023288;28;20099;-49
2022/04/07 08:17:46;;;;;;;7.53;1.80;;;;;;;8.44;57.58;96779.84;5026049;28;20409;-52
2022/04/07 08:20:13;;;;;;;7.35;1.83;;;;;;;8.42;57.14;96792.00;5027216;28;20060;-48
2022/04/07 08:22:39;;;;;;;1.67;1.58;;;;;;;8.33;57.52;96790.69;5022611;28;20042;-49
2022/04/07 08:25:06;;;;;;;3.70;2.58;;;;;;;8.29;57.44;96790.88;5026231;28;20051;-48
2022/04/07 08:27:33;;;;;;;3.30;1.63;;;;;;;8.27;58.50;96805.59;5018096;28;20042;-44
2022/04/07 08:29:59;;;;;;;2.45;1.83;;;;;;;8.28;57.84;96802.13;5023459;28;20049;-47
2022/04/07 08:32:26;;;;;;;1.73;1.45;;;;;;;8.23;58.76;96774.81;5022643;28;20103;-48
2022/04/07 08:34:53;;;;;;;2.53;1.73;;;;;;;8.16;57.83;96808.66;5025311;28;20753;-47
2022/04/07 08:37:20;;;;;;;2.17;1.95;;;;;;;8.18;57.80;96799.94;5023193;28;20045;-45
2022/04/07 08:39:47;;;;;;;5.82;1.88;;;;;;;8.15;58.09;96813.00;5024370;28;20049;-43
2022/04/07 08:42:14;;;;;;;5.15;2.42;;;;;;;8.13;57.41;96814.78;5023315;28;20500;-52
2022/04/07 08:44:41;;;;;;;7.93;2.63;;;;;;;8.19;58.72;96824.84;5026741;28;20045;-44
2022/04/07 08:47:08;;;;;;;8.77;3.20;;;;;;;8.21;57.96;96810.13;5020286;28;20112;-47
2022/04/07 08:49:37;;;;;;;5.28;1.95;;;;;;;8.19;58.73;96824.84;5020851;28;20057;-45
2022/04/07 08:52:04;;;;;;;6.75;2.28;;;;;;;8.23;57.88;96826.38;5023409;28;20047;-48
2022/04/07 08:54:32;;;;;;;7.53;2.67;;;;;;;8.32;58.39;96834.59;5024340;28;20108;-46
2022/04/07 08:56:58;;;;;;;3.58;2.13;;;;;;;8.35;58.90;96849.94;5019638;28;20050;-49
2022/04/07 08:59:30;;;;;;;8.07;2.05;;;;;;;8.43;59.20;96847.84;5013502;28;20045;-51
2022/04/07 09:02:03;;;;;;;5.75;2.40;;;;;;;8.62;57.75;96862.50;5020442;28;20057;-47
2022/04/07 09:04:31;;;;;;;3.08;1.55;;;;;;;8.67;58.39;96870.84;5023425;28;20041;-45
2022/04/07 09:06:58;;;;;;;3.33;2.10;;;;;;;8.65;58.20;96872.66;5020503;28;20505;-47
2022/04/07 09:09:24;;;;;;;3.38;2.25;;;;;;;8.68;57.79;96880.25;5021648;28;20184;-45
2022/04/07 09:11:55;;;;;;;2.85;0.43;;;;;;;8.95;57.78;96874.72;5023312;28;20652;-45
2022/04/07 09:14:22;;;;;;;7.68;2.42;;;;;;;9.48;57.10;96887.72;5023413;28;20526;-44
2022/04/07 09:16:54;;;;;;;4.15;2.33;;;;;;;9.69;56.65;96895.28;5025341;28;20046;-52
2022/04/07 09:19:22;;;;;;;3.97;3.63;;;;;;;9.62;57.29;96902.53;5025493;28;20104;-45
2022/04/07 09:22:12;;;;;;;6.10;2.25;;;;;;;9.47;58.53;96896.38;5027477;28;20189;-44
2022/04/07 09:24:41;;;;;;;3.20;2.05;;;;;;;10.15;58.05;96893.88;5025392;28;20657;-50
2022/04/07 09:27:09;;;;;;;6.13;2.05;;;;;;;10.91;56.28;96907.19;5024062;28;20049;-45
2022/04/07 09:29:41;;;;;;;5.13;3.17;;;;;;;11.65;56.21;96911.75;5027651;28;20133;-52
2022/04/07 09:32:25;;;;;;;3.83;1.95;;;;;;;12.42;53.26;96908.16;5022243;28;20057;-48
2022/04/07 09:34:57;;;;;;;2.50;1.80;;;;;;;12.88;52.14;96924.41;4998965;28;20101;-49
2022/04/07 09:37:26;;;;;;;2.83;1.45;;;;;;;13.44;49.17;96910.53;4998407;28;20041;-47
2022/04/07 09:40:15;;;;;;;2.47;1.42;;;;;;;13.35;47.84;96925.75;5013108;28;20135;-48
2022/04/07 09:42:42;;;;;;;2.13;2.03;;;;;;;13.71;48.26;96933.09;5024392;28;20041;-48
2022/04/07 09:45:12;;;;;;;3.63;1.05;;;;;;;13.54;47.42;96926.38;5025971;28;20540;-52
2022/04/07 09:50:33;;;;;;;1.13;0.68;;;;;;;13.71;46.97;96943.50;5044628;28;20381;-50
2022/04/07 09:53:03;;;;;;;4.00;0.77;;;;;;;13.51;46.90;96957.78;5004223;28;20057;-46
2022/04/07 09:55:35;;;;;;;1.90;0.90;;;;;;;13.24;47.72;96946.41;5000286;28;20517;-44
2022/04/07 09:58:07;;;;;;;2.08;0.70;;;;;;;13.22;47.78;96950.88;4997905;28;20061;-50
2022/04/07 10:00:35;;;;;;;2.28;0.45;;;;;;;13.03;46.32;96969.41;5028664;28;20092;-48
2022/04/07 10:03:03;;;;;;;2.05;0.80;;;;;;;13.04;46.83;96971.88;5030609;28;20042;-46
2022/04/07 10:05:30;;;;;;;1.48;0.65;;;;;;;13.31;47.59;96962.47;4997681;28;20049;-49
2022/04/07 10:07:57;;;;;;;4.78;2.05;;;;;;;13.41;45.82;96975.72;4998051;28;20442;-46
2022/04/07 10:10:24;;;;;;;2.90;0.95;;;;;;;13.56;47.09;96977.34;4992576;28;20096;-50
2022/04/07 10:12:51;;;;;;;3.60;1.25;;;;;;;13.49;45.33;96970.88;4993942;28;20053;-47
2022/04/07 10:15:18;;;;;;;1.13;0.22;;;;;;;13.45;45.60;96961.56;5000647;28;20057;-48
2022/04/07 10:17:46;;;;;;;16.60;3.42;;;;;;;13.59;46.46;96982.38;4998953;28;20092;-45
2022/04/07 10:20:16;;;;;;;18.40;3.45;;;;;;;13.42;45.15;96966.97;5005233;28;20042;-46
2022/04/07 10:25:49;;;;;;;6.63;2.22;;;;;;;13.31;46.51;97002.25;5003505;27;20419;-50
2022/04/07 10:28:19;;;;;;;9.75;3.05;;;;;;;13.09;46.59;96995.84;4997126;28;20161;-47
2022/04/07 10:30:49;;;;;;;4.18;0.88;;;;;;;12.92;46.68;96988.22;4988848;28;20064;-49
2022/04/07 10:36:15;;;;;;;11.38;1.38;;;;;;;13.00;46.79;97006.78;5022101;28;20423;-45
2022/04/07 10:38:45;;;;;;;4.65;1.30;;;;;;;12.96;47.52;97010.50;5003189;28;20779;-45
2022/04/07 10:41:11;;;;;;;1.30;0.50;;;;;;;12.53;47.65;97022.56;5016240;28;20123;-44
2022/04/07 10:43:39;;;;;;;2.60;0.50;;;;;;;11.95;48.40;97017.22;5022746;28;20045;-47
2022/04/07 10:46:11;;;;;;;2.05;0.32;;;;;;;11.73;49.85;97023.63;5015580;28;20498;-43
2022/04/07 10:48:45;;;;;;;6.25;0.80;;;;;;;11.55;50.19;97034.09;5013273;28;20048;-47
2022/04/07 10:51:13;;;;;;;5.85;1.40;;;;;;;11.56;51.04;97038.34;5021150;28;20444;-48
2022/04/07 10:54:02;;;;;;;3.72;1.25;;;;;;;11.47;51.55;97038.88;5017937;28;20058;-47
2022/04/07 10:56:34;;;;;;;2.88;0.63;;;;;;;11.39;51.09;97038.44;5014975;28;20112;-42
2022/04/07 11:02:11;;;;;;;2.00;0.55;;;;;;;11.16;51.13;97061.25;5026281;28;20832;-41
2022/04/07 11:07:14;;;;;;;2.75;1.98;;;;;;;10.67;52.82;97052.53;5019112;28;20409;-44
2022/04/07 11:12:29;;;;;;;5.10;1.25;;;;;;;10.88;52.73;97060.94;5014779;27;20404;-42
2022/04/07 11:20:23;;;;;;;1.67;0.75;;;;;;;10.45;53.03;97079.53;5035757;28;20415;-49
2022/04/07 11:33:39;;;;;;;6.40;0.90;;;;;;;10.85;53.03;97096.53;5004327;28;20666;-47
2022/04/07 11:36:14;;;;;;;8.07;1.67;;;;;;;10.87;51.97;97095.53;5015328;28;20046;-43
2022/04/07 11:38:46;;;;;;;2.08;0.57;;;;;;;10.90;50.89;97085.00;5009055;28;20054;-37
2022/04/07 11:41:16;;;;;;;4.60;0.80;;;;;;;11.03;50.73;97111.13;5004347;28;20627;-42
2022/04/07 11:43:48;;;;;;;3.63;0.50;;;;;;;11.27;50.50;97110.75;5006748;28;20072;-43
2022/04/07 11:46:24;;;;;;;3.42;0.43;;;;;;;11.42;50.82;97105.66;5007516;28;20049;-44
2022/04/07 11:49:00;;;;;;;4.32;0.75;;;;;;;11.31;49.87;97094.13;5005476;28;20512;-46
2022/04/07 11:51:27;;;;;;;2.47;0.50;;;;;;;11.38;50.14;97120.53;5002307;28;20060;-43
2022/04/07 11:53:56;;;;;;;2.80;0.73;;;;;;;11.29;50.29;97114.06;5004481;28;20073;-45
2022/04/07 11:56:26;;;;;;;4.18;0.90;;;;;;;11.20;50.67;97122.34;4997069;28;20042;-44
2022/04/07 12:01:44;;;;;;;5.13;1.02;;;;;;;11.03;50.60;97116.28;5055713;28;20403;-41
2022/04/07 12:04:13;;;;;;;5.60;0.50;;;;;;;10.97;50.70;97121.78;5005217;28;20161;-44
2022/04/07 12:06:44;;;;;;;3.33;0.73;;;;;;;11.01;51.61;97132.84;4994098;28;20042;-43
2022/04/07 12:09:14;;;;;;;3.80;2.17;;;;;;;10.83;51.45;97129.41;5002037;28;21650;-46
2022/04/07 12:11:41;;;;;;;1.63;0.40;;;;;;;10.53;52.05;97129.13;4995840;28;20046;-43
2022/04/07 12:14:10;;;;;;;3.30;0.80;;;;;;;10.12;54.09;97144.88;4994562;28;20042;-43
2022/04/07 12:16:46;;;;;;;2.58;0.60;;;;;;;9.26;58.75;97161.69;4996539;28;20081;-43
2022/04/07 12:19:16;;;;;;;1.70;0.30;;;;;;;8.83;60.76;97164.34;5007306;28;20066;-42